createdAt,value
2022-09-20T00:00:42.665Z,19.6
2022-09-20T00:03:00.050Z,19.8
2022-09-20T00:05:16.898Z,19.4
2022-09-20T00:07:32.860Z,19.8
2022-09-20T00:09:49.078Z,20
2022-09-20T00:12:05.308Z,20.1
2022-09-20T00:14:22.003Z,20.1
2022-09-20T00:16:38.777Z,20.2
2022-09-20T00:18:55.955Z,19.5
2022-09-20T00:21:12.966Z,19.3
2022-09-20T00:23:30.391Z,19.6
2022-09-20T00:25:47.317Z,19.6
2022-09-20T00:28:04.364Z,19.7
2022-09-20T00:30:21.623Z,19.8
2022-09-20T00:32:37.426Z,19.9
2022-09-20T00:34:54.453Z,20.1
2022-09-20T00:37:11.451Z,19.4
2022-09-20T00:39:28.835Z,19.7
2022-09-20T00:41:45.837Z,19.5
2022-09-20T00:44:03.149Z,19.5
2022-09-20T00:46:19.987Z,19.5
2022-09-20T00:48:37.445Z,19.8
2022-09-20T00:50:53.631Z,19.4
2022-09-20T00:53:10.123Z,19.3
2022-09-20T00:55:27.065Z,19.9
2022-09-20T00:57:43.979Z,19.4
2022-09-20T01:00:01.417Z,19.7
2022-09-20T01:02:17.337Z,19.5
2022-09-20T01:04:34.264Z,20
2022-09-20T01:06:51.186Z,19.4
2022-09-20T01:09:08.488Z,19.6
2022-09-20T01:11:25.380Z,19.4
2022-09-20T01:13:42.495Z,19.4
2022-09-20T01:15:59.687Z,19.5
2022-09-20T01:18:16.748Z,19.6
2022-09-20T01:20:33.882Z,19.3
2022-09-20T01:22:50.949Z,19.3
2022-09-20T01:25:08.084Z,19.3
2022-09-20T01:27:25.108Z,19.6
2022-09-20T01:29:42.315Z,19.6
2022-09-20T01:31:59.155Z,19.3
2022-09-20T01:34:15.562Z,19.4
2022-09-20T01:36:31.874Z,20.1
2022-09-20T01:38:48.921Z,19
2022-09-20T01:41:06.185Z,19.4
2022-09-20T01:43:23.165Z,19.6
2022-09-20T01:45:40.570Z,19.3
2022-09-20T01:47:57.493Z,19.4
2022-09-20T01:50:14.630Z,19.4
2022-09-20T01:52:31.613Z,19.4
2022-09-20T01:54:48.841Z,19.4
2022-09-20T01:57:05.878Z,19.4
2022-09-20T01:59:30.952Z,19.2
2022-09-20T02:01:47.502Z,19.2
2022-09-20T02:04:04.485Z,19.3
2022-09-20T02:06:21.535Z,19.3
2022-09-20T02:08:37.307Z,19.3
2022-09-20T02:10:53.953Z,19.7
2022-09-20T02:13:10.960Z,19.4
2022-09-20T02:15:27.960Z,19.3
2022-09-20T02:17:44.929Z,19.3
2022-09-20T02:20:02.158Z,19.2
2022-09-20T02:22:18.952Z,19.3
2022-09-20T02:24:35.683Z,19.3
2022-09-20T02:26:51.856Z,19.3
2022-09-20T02:29:08.615Z,19.8
2022-09-20T02:31:24.668Z,19.3
2022-09-20T02:33:41.368Z,19.8
2022-09-20T02:35:58.355Z,19.1
2022-09-20T02:38:15.331Z,19.4
2022-09-20T02:40:31.863Z,19.3
2022-09-20T02:42:48.301Z,19.3
2022-09-20T02:45:04.329Z,19.8
2022-09-20T02:47:21.170Z,19.8
2022-09-20T02:49:38.190Z,19.1
2022-09-20T02:51:55.203Z,19.2
2022-09-20T02:54:12.262Z,19.4
2022-09-20T02:56:28.651Z,19.3
2022-09-20T02:58:46.406Z,19.2
2022-09-20T03:02:25.682Z,18.9
2022-09-20T03:04:42.644Z,19.3
2022-09-20T03:06:59.617Z,19.1
2022-09-20T03:09:16.824Z,19.3
2022-09-20T03:11:32.279Z,19.3
2022-09-20T03:13:49.192Z,19.7
2022-09-20T03:16:06.287Z,19.4
2022-09-20T03:18:23.254Z,19.3
2022-09-20T03:20:40.209Z,19.3
2022-09-20T03:22:55.928Z,19.3
2022-09-20T03:25:12.731Z,19.6
2022-09-20T03:27:28.662Z,19.1
2022-09-20T03:29:44.620Z,19.6
2022-09-20T03:32:01.613Z,19.6
2022-09-20T03:34:18.693Z,19.3
2022-09-20T03:36:35.697Z,19.1
2022-09-20T03:38:51.582Z,19.3
2022-09-20T03:41:07.720Z,19.7
2022-09-20T03:43:23.566Z,19.9
2022-09-20T03:45:40.541Z,19.7
2022-09-20T03:47:57.717Z,19.4
2022-09-20T03:50:14.725Z,19.1
2022-09-20T03:52:30.528Z,18.9
2022-09-20T03:54:47.482Z,19.8
2022-09-20T03:57:03.245Z,19.1
2022-09-20T03:59:19.339Z,19.4
2022-09-20T04:01:36.117Z,19.5
2022-09-20T04:03:52.180Z,19.1
2022-09-20T04:06:08.063Z,19.6
2022-09-20T04:08:25.278Z,19.6
2022-09-20T04:10:42.347Z,18.9
2022-09-20T04:12:59.412Z,19.1
2022-09-20T04:15:16.378Z,19.1
2022-09-20T04:17:32.231Z,19.1
2022-09-20T04:19:48.138Z,19.4
2022-09-20T04:22:05.205Z,19.4
2022-09-20T04:24:22.239Z,19
2022-09-20T04:26:38.458Z,18.9
2022-09-20T04:28:55.042Z,19.6
2022-09-20T04:31:12.127Z,18.9
2022-09-20T04:33:29.264Z,19
2022-09-20T04:35:46.225Z,19.1
2022-09-20T04:38:03.207Z,19.1
2022-09-20T04:40:20.376Z,19.1
2022-09-20T04:42:35.918Z,18.9
2022-09-20T04:44:52.983Z,19.4
2022-09-20T04:47:10.062Z,18.8
2022-09-20T04:49:27.093Z,19.2
2022-09-20T04:51:44.105Z,19
2022-09-20T04:54:01.114Z,19.1
2022-09-20T04:56:18.030Z,19.3
2022-09-20T04:58:35.056Z,19.1
2022-09-20T05:00:52.202Z,19.1
2022-09-20T05:03:09.247Z,19.1
2022-09-20T05:05:26.169Z,19.1
2022-09-20T05:07:43.984Z,19.1
2022-09-20T05:09:59.665Z,19.1
2022-09-20T05:12:16.788Z,19.6
2022-09-20T05:14:33.499Z,19.1
2022-09-20T05:16:50.617Z,19.3
2022-09-20T05:19:07.428Z,19.2
2022-09-20T05:21:24.488Z,19.1
2022-09-20T05:23:40.087Z,19.1
2022-09-20T05:25:56.953Z,19.5
2022-09-20T05:28:12.950Z,19.4
2022-09-20T05:30:29.837Z,19.6
2022-09-20T05:32:47.271Z,19.4
2022-09-20T05:35:04.162Z,19.6
2022-09-20T05:37:19.962Z,19.3
2022-09-20T05:39:36.919Z,19.8
2022-09-20T05:41:54.122Z,19.6
2022-09-20T05:44:09.795Z,19.6
2022-09-20T05:46:26.696Z,20.1
2022-09-20T05:48:43.895Z,19.7
2022-09-20T05:51:01.787Z,19.6
2022-09-20T05:53:16.443Z,20.3
2022-09-20T05:55:33.406Z,19.8
2022-09-20T05:57:50.867Z,19.8
2022-09-20T06:00:07.495Z,20.2
2022-09-20T06:02:22.976Z,20
2022-09-20T06:04:38.553Z,20.3
2022-09-20T06:06:55.507Z,20.4
2022-09-20T06:09:12.682Z,20.3
2022-09-20T06:11:28.075Z,20.1
2022-09-20T06:13:45.193Z,20.5
2022-09-20T06:16:00.462Z,20.4
2022-09-20T06:18:17.678Z,20.7
2022-09-20T06:20:34.518Z,20.6
2022-09-20T06:22:51.597Z,20.6
2022-09-20T06:25:08.409Z,20.7
2022-09-20T06:27:25.172Z,20.7
2022-09-20T06:29:42.157Z,20.8
2022-09-20T06:31:58.785Z,20.7
2022-09-20T06:34:15.571Z,21.1
2022-09-20T06:36:32.235Z,20.9
2022-09-20T06:38:48.970Z,20.9
2022-09-20T06:45:38.935Z,21.3
2022-09-20T06:47:53.857Z,21.2
2022-09-20T06:50:10.625Z,21.6
2022-09-20T06:52:27.139Z,21.4
2022-09-20T06:54:43.935Z,21.6
2022-09-20T06:57:00.286Z,21.8
2022-09-20T06:59:16.880Z,21.4
2022-09-20T07:01:33.222Z,21.8
2022-09-20T07:03:49.778Z,21.7
2022-09-20T07:06:05.844Z,21.7
2022-09-20T07:08:21.084Z,21.8
2022-09-20T07:10:35.883Z,21.8
2022-09-20T07:12:52.229Z,22.1
2022-09-20T07:15:07.675Z,22.1
2022-09-20T07:17:24.097Z,22
2022-09-20T07:19:39.226Z,22.3
2022-09-20T07:21:54.299Z,22.5
2022-09-20T07:24:10.969Z,22.4
2022-09-20T07:26:27.400Z,22.4
2022-09-20T07:28:42.481Z,22.3
2022-09-20T07:30:57.491Z,22.7
2022-09-20T07:33:13.802Z,22.6
2022-09-20T07:35:30.576Z,22.5
2022-09-20T07:37:45.463Z,22.6
2022-09-20T07:40:02.107Z,22.8
2022-09-20T07:42:17.029Z,22.7
2022-09-20T07:44:33.537Z,22.9
2022-09-20T07:46:48.598Z,22.9
2022-09-20T07:49:03.809Z,22.9
2022-09-20T07:51:18.393Z,23.3
2022-09-20T07:53:35.170Z,22.9
2022-09-20T07:55:50.070Z,22.9
2022-09-20T07:58:06.223Z,23
2022-09-20T08:00:22.647Z,23.1
2022-09-20T08:02:38.792Z,23.2
2022-09-20T08:04:54.889Z,23.2
2022-09-20T08:07:10.793Z,23.2
2022-09-20T08:09:26.075Z,23.4
2022-09-20T08:11:42.243Z,23.4
2022-09-20T08:14:54.136Z,23.2
2022-09-20T08:17:09.733Z,23.3
2022-09-20T08:19:25.198Z,23.5
2022-09-20T08:21:40.592Z,23.4
2022-09-20T08:24:09.918Z,23.7
2022-09-20T08:26:24.774Z,23.4
2022-09-20T08:28:39.622Z,23.3
2022-09-20T08:30:54.474Z,23.6
2022-09-20T08:33:09.352Z,23.5
2022-09-20T08:35:25.632Z,23.5
2022-09-20T08:37:42.035Z,23.4
2022-09-20T08:41:44.299Z,23.6
2022-09-20T08:44:00.624Z,23.6
2022-09-20T08:46:23.198Z,23.6
2022-09-20T08:48:38.550Z,23.6
2022-09-20T08:50:53.502Z,23.6
2022-09-20T08:53:08.300Z,23.6
2022-09-20T08:55:23.381Z,23.5
2022-09-20T08:57:39.840Z,23.4
2022-09-20T08:59:56.343Z,23.2
2022-09-20T09:02:25.010Z,22.8
2022-09-20T09:04:39.689Z,23.2
2022-09-20T09:06:56.557Z,23.6
2022-09-20T09:09:13.028Z,23.4
2022-09-20T09:11:29.415Z,23.3
2022-09-20T09:13:44.478Z,23
2022-09-20T09:16:00.691Z,23.4
2022-09-20T09:18:17.138Z,23.1
2022-09-20T09:20:32.323Z,23.1
2022-09-20T09:22:48.303Z,23.5
2022-09-20T09:25:04.741Z,22.9
2022-09-20T09:27:21.089Z,23.6
2022-09-20T09:29:36.021Z,22.9
2022-09-20T09:31:52.257Z,23.4
2022-09-20T09:34:08.506Z,22.9
2022-09-20T09:36:24.415Z,23.6
2022-09-20T09:38:39.487Z,22.9
2022-09-20T09:40:54.654Z,23.3
2022-09-20T09:43:09.899Z,23.3
2022-09-20T09:45:25.375Z,23.3
2022-09-20T09:47:40.932Z,23.4
2022-09-20T09:49:59.802Z,23.4
2022-09-20T09:52:12.149Z,23.5
2022-09-20T09:54:27.734Z,23.5
2022-09-20T09:56:43.500Z,23.2
2022-09-20T09:58:59.035Z,23.4
2022-09-20T10:01:14.753Z,23.3
2022-09-20T10:03:30.401Z,23.3
2022-09-20T10:05:46.399Z,23.4
2022-09-20T10:08:01.914Z,23.4
2022-09-20T10:10:17.607Z,23.3
2022-09-20T10:12:33.393Z,23.3
2022-09-20T10:14:48.974Z,23.3
2022-09-20T10:17:04.754Z,23.3
2022-09-20T10:19:22.667Z,23.3
2022-09-20T10:21:36.330Z,23.3
2022-09-20T10:24:31.600Z,23.3
2022-09-20T10:26:47.457Z,23.1
2022-09-20T10:29:03.198Z,23.2
2022-09-20T10:31:22.260Z,23.3
2022-09-20T10:33:34.700Z,23.1
2022-09-20T10:35:50.467Z,23.3
2022-09-20T10:38:06.373Z,23.1
2022-09-20T10:40:22.796Z,23.2
2022-09-20T10:42:39.090Z,22.6
2022-09-20T10:44:54.256Z,22.6
2022-09-20T10:47:44.025Z,23.1
2022-09-20T10:49:59.739Z,23.2
2022-09-20T10:52:16.321Z,23
2022-09-20T10:54:32.881Z,22.8
2022-09-20T10:56:49.303Z,22.7
2022-09-20T10:59:04.357Z,22.7
2022-09-20T11:01:19.653Z,23.1
2022-09-20T11:03:35.233Z,23.1
2022-09-20T11:05:51.933Z,23
2022-09-20T11:08:08.439Z,22.6
2022-09-20T11:10:24.889Z,22.8
2022-09-20T11:12:41.744Z,23.1
2022-09-20T11:14:57.915Z,23.3
2022-09-20T11:17:14.464Z,22.9
2022-09-20T11:19:29.439Z,22.5
2022-09-20T11:21:45.255Z,23
2022-09-20T11:24:01.275Z,22.9
2022-09-20T11:26:16.666Z,22.4
2022-09-20T11:28:32.104Z,23.1
2022-09-20T11:30:47.708Z,22.9
2022-09-20T11:33:03.473Z,23
2022-09-20T11:35:19.097Z,22.9
2022-09-20T11:37:34.529Z,22.8
2022-09-20T11:39:50.818Z,22.9
2022-09-20T11:42:06.749Z,22.9
2022-09-20T11:44:22.584Z,22.9
2022-09-20T11:46:38.372Z,22.9
2022-09-20T11:49:11.130Z,22.9
2022-09-20T11:51:26.986Z,22.9
2022-09-20T11:53:42.830Z,23
2022-09-20T11:55:58.536Z,22.9
2022-09-20T11:58:14.249Z,22.9
2022-09-20T12:00:30.066Z,22.9
2022-09-20T12:02:46.199Z,22.8
2022-09-20T12:05:18.672Z,22.8
2022-09-20T12:07:34.481Z,22.8
2022-09-20T12:09:50.349Z,22.9
2022-09-20T12:12:06.286Z,22.9
2022-09-20T12:14:21.965Z,22.9
2022-09-20T12:16:37.820Z,22.9
2022-09-20T12:18:53.420Z,22.9
2022-09-20T12:21:14.972Z,22.7
2022-09-20T12:23:24.524Z,22.9
2022-09-20T12:25:41.439Z,22.9
2022-09-20T12:27:57.021Z,22.5
2022-09-20T12:30:13.336Z,22.9
2022-09-20T12:32:29.717Z,22.6
2022-09-20T12:34:46.189Z,22.4
2022-09-20T12:37:01.341Z,22.4
2022-09-20T12:39:21.804Z,22.8
2022-09-20T12:41:31.901Z,22.6
2022-09-20T12:43:47.489Z,22.6
2022-09-20T12:46:06.529Z,22.8
2022-09-20T12:48:19.044Z,22.8
2022-09-20T12:50:34.817Z,22.8
2022-09-20T12:52:50.803Z,22.8
2022-09-20T12:55:10.882Z,22.8
2022-09-20T12:57:22.752Z,22.8
2022-09-20T12:59:38.347Z,22.9
2022-09-20T13:01:54.159Z,22.9
2022-09-20T13:04:10.183Z,22.8
2022-09-20T13:06:25.969Z,22.8
2022-09-20T13:08:42.035Z,22.8
2022-09-20T13:10:57.887Z,22.8
2022-09-20T13:13:13.918Z,22.8
2022-09-20T13:15:29.603Z,22.7
2022-09-20T13:17:45.642Z,22.8
2022-09-20T13:20:01.520Z,22.8
2022-09-20T13:22:17.186Z,22.8
2022-09-20T13:24:32.901Z,22.6
2022-09-20T13:26:49.034Z,22.8
2022-09-20T13:29:05.138Z,22.7
2022-09-20T13:31:21.002Z,22.9
2022-09-20T13:33:36.906Z,22.8
2022-09-20T13:35:52.789Z,22.7
2022-09-20T13:38:08.731Z,22.7
2022-09-20T13:40:24.601Z,22.6
2022-09-20T13:42:40.864Z,22.7
2022-09-20T13:45:12.462Z,22.7
2022-09-20T13:47:28.969Z,22.6
2022-09-20T13:49:44.479Z,22
2022-09-20T13:52:00.763Z,22.8
2022-09-20T13:54:20.677Z,22.3
2022-09-20T13:56:36.113Z,22.9
2022-09-20T13:58:51.733Z,22.8
2022-09-20T14:01:07.369Z,22.6
2022-09-20T14:03:22.976Z,22.6
2022-09-20T14:05:38.842Z,22.5
2022-09-20T14:07:54.801Z,22.8
2022-09-20T14:10:10.894Z,22.8
2022-09-20T14:12:26.477Z,22.1
2022-09-20T14:14:41.873Z,22.6
2022-09-20T14:16:57.654Z,22.4
2022-09-20T14:19:13.310Z,22.6
2022-09-20T14:21:28.879Z,22.4
2022-09-20T14:23:44.921Z,22.5
2022-09-20T14:26:00.429Z,22.5
2022-09-20T14:28:17.021Z,22.4
2022-09-20T14:30:32.440Z,21.8
2022-09-20T14:32:47.890Z,22.4
2022-09-20T14:35:03.515Z,22.4
2022-09-20T14:37:19.178Z,22.5
2022-09-20T14:39:34.875Z,22.5
2022-09-20T14:41:50.875Z,22.3
2022-09-20T14:44:06.860Z,21.9
2022-09-20T14:46:22.220Z,22.2
2022-09-20T14:48:38.611Z,22.3
2022-09-20T14:50:54.076Z,21.6
2022-09-20T14:53:10.745Z,22.2
2022-09-20T14:55:25.784Z,22
2022-09-20T14:57:41.216Z,22.2
2022-09-20T14:59:57.662Z,22.3
2022-09-20T15:02:24.228Z,21.7
2022-09-20T15:04:40.377Z,22
2022-09-20T15:06:56.795Z,21.6
2022-09-20T15:09:13.275Z,22.3
2022-09-20T15:11:29.682Z,22.3
2022-09-20T15:13:44.627Z,21.8
2022-09-20T15:16:00.987Z,22.3
2022-09-20T15:18:16.080Z,21.7
2022-09-20T15:20:33.043Z,22.1
2022-09-20T15:22:48.736Z,22.1
2022-09-20T15:25:04.844Z,21.9
2022-09-20T15:27:19.959Z,21.8
2022-09-20T15:29:36.181Z,22.1
2022-09-20T15:31:52.791Z,22.1
2022-09-20T15:34:09.020Z,21.8
2022-09-20T15:36:25.521Z,22.1
2022-09-20T15:38:41.947Z,22
2022-09-20T15:40:58.057Z,21.8
2022-09-20T15:43:14.490Z,21.9
2022-09-20T15:45:30.781Z,22.3
2022-09-20T15:47:47.208Z,22.3
2022-09-20T15:50:03.521Z,22.1
2022-09-20T15:52:19.856Z,22.3
2022-09-20T15:54:36.258Z,22.1
2022-09-20T15:56:52.583Z,22.3
2022-09-20T15:59:08.404Z,22
2022-09-20T16:01:25.342Z,22
2022-09-20T16:03:41.667Z,21.8
2022-09-20T16:05:58.855Z,21.9
2022-09-20T16:08:11.729Z,21.8
2022-09-20T16:10:28.399Z,21.8
2022-09-20T16:12:45.163Z,21.8
2022-09-20T16:15:00.239Z,21.6
2022-09-20T16:17:15.555Z,21.9
2022-09-20T16:19:30.841Z,21.8
2022-09-20T16:21:46.348Z,21.8
2022-09-20T16:24:02.021Z,21.8
2022-09-20T16:26:17.483Z,22
2022-09-20T16:28:33.098Z,21.7
2022-09-20T16:30:48.737Z,21.7
2022-09-20T16:33:05.456Z,21.6
2022-09-20T16:35:20.999Z,21.8
2022-09-20T16:37:36.497Z,21.6
2022-09-20T16:39:51.939Z,21.7
2022-09-20T16:42:08.748Z,21.8
2022-09-20T16:44:25.503Z,21.6
2022-09-20T16:46:42.295Z,21.6
2022-09-20T16:48:57.504Z,21.4
2022-09-20T16:51:12.819Z,21.6
2022-09-20T16:53:29.430Z,21.6
2022-09-20T16:55:45.032Z,21.4
2022-09-20T16:58:00.223Z,21.6
2022-09-20T17:00:15.152Z,21.6
2022-09-20T17:02:32.520Z,21.6
2022-09-20T17:04:49.406Z,21.2
2022-09-20T17:07:06.263Z,21.2
2022-09-20T17:09:23.116Z,21.3
2022-09-20T17:11:38.045Z,21.3
2022-09-20T17:13:53.294Z,21.3
2022-09-20T17:16:10.007Z,21.4
2022-09-20T17:18:27.007Z,21.2
2022-09-20T17:20:43.774Z,21.2
2022-09-20T17:23:00.753Z,21.4
2022-09-20T17:25:18.224Z,21.2
2022-09-20T17:27:34.254Z,21.4
2022-09-20T17:29:49.359Z,21.3
2022-09-20T17:32:04.785Z,21.2
2022-09-20T17:34:21.560Z,21.3
2022-09-20T17:36:37.065Z,20.8
2022-09-20T17:38:53.740Z,20.9
2022-09-20T17:41:10.502Z,20.9
2022-09-20T17:43:27.586Z,20.7
2022-09-20T17:45:44.141Z,21
2022-09-20T17:50:17.739Z,20.9
2022-09-20T17:52:34.561Z,21.1
2022-09-20T17:54:51.546Z,20.8
2022-09-20T17:59:24.927Z,20.9
2022-09-20T18:01:41.524Z,21.1
2022-09-20T18:03:58.310Z,20.8
2022-09-20T18:06:15.094Z,20.9
2022-09-20T18:08:31.853Z,20.8
2022-09-20T18:10:48.645Z,21
2022-09-20T18:13:05.590Z,20.9
2022-09-20T18:15:22.374Z,20.9
2022-09-20T18:17:39.268Z,20.9
2022-09-20T18:19:55.897Z,20.9
2022-09-20T18:22:12.777Z,20.8
2022-09-20T18:24:29.451Z,20.7
2022-09-20T18:26:46.323Z,20.9
2022-09-20T18:29:03.262Z,20.8
2022-09-20T18:31:19.784Z,20.9
2022-09-20T18:33:37.523Z,20.8
2022-09-20T18:35:54.560Z,20.6
2022-09-20T18:38:11.270Z,20.8
2022-09-20T18:40:28.305Z,20.8
2022-09-20T18:42:44.955Z,20.8
2022-09-20T18:45:01.380Z,20.8
2022-09-20T18:47:18.103Z,20.7
2022-09-20T18:49:34.862Z,20.7
2022-09-20T18:51:51.660Z,20.7
2022-09-20T18:54:08.355Z,20.6
2022-09-20T18:56:24.972Z,20.6
2022-09-20T18:58:41.630Z,20.7
2022-09-20T19:00:58.495Z,20.8
2022-09-20T19:03:15.195Z,20.8
2022-09-20T19:05:31.812Z,20.9
2022-09-20T19:07:48.796Z,20.8
2022-09-20T19:10:05.353Z,20.6
2022-09-20T19:12:22.122Z,20.7
2022-09-20T19:14:39.115Z,20.6
2022-09-20T19:16:55.796Z,20.5
2022-09-20T19:19:12.650Z,20.4
2022-09-20T19:21:29.454Z,20.6
2022-09-20T19:23:46.344Z,20.5
2022-09-20T19:26:03.269Z,20.8
2022-09-20T19:28:20.138Z,20.6
2022-09-20T19:30:36.764Z,20.8
2022-09-20T19:32:53.369Z,20.8
2022-09-20T19:35:08.844Z,20.5
2022-09-20T19:37:24.932Z,20.7
2022-09-20T19:39:42.482Z,20.5
2022-09-20T19:41:59.360Z,20.4
2022-09-20T19:44:16.376Z,20.4
2022-09-20T19:46:33.054Z,20.5
2022-09-20T19:48:49.865Z,20.6
2022-09-20T19:51:06.579Z,20.5
2022-09-20T19:53:23.637Z,20.4
2022-09-20T19:55:40.295Z,20.4
2022-09-20T19:57:57.063Z,20.4
2022-09-20T20:00:13.969Z,20.6
2022-09-20T20:02:30.754Z,20.5
2022-09-20T20:04:47.640Z,20.4
2022-09-20T20:07:04.525Z,20.4
2022-09-20T20:09:21.394Z,20.5
2022-09-20T20:11:36.638Z,20.4
2022-09-20T20:13:53.323Z,20.8
2022-09-20T20:16:10.180Z,20.2
2022-09-20T20:18:26.987Z,20.3
2022-09-20T20:20:43.845Z,20.4
2022-09-20T20:23:00.657Z,20.4
2022-09-20T20:25:15.999Z,20.4
2022-09-20T20:27:32.550Z,20.5
2022-09-20T20:29:49.661Z,20.3
2022-09-20T20:32:06.637Z,20.3
2022-09-20T20:34:23.448Z,20.3
2022-09-20T20:36:40.262Z,20.3
2022-09-20T20:38:57.228Z,20.3
2022-09-20T20:41:13.865Z,20.1
2022-09-20T20:43:29.014Z,20.2
2022-09-20T20:45:46.051Z,20.4
2022-09-20T20:48:02.689Z,19.9
2022-09-20T20:50:21.015Z,20.3
2022-09-20T20:52:36.223Z,20.1
2022-09-20T20:54:52.754Z,20.4
2022-09-20T20:57:09.885Z,20
2022-09-20T20:59:26.471Z,20.3
2022-09-20T21:02:25.893Z,19.4
2022-09-20T21:04:42.780Z,20.2
2022-09-20T21:06:59.625Z,20.1
2022-09-20T21:09:16.383Z,20
2022-09-20T21:11:32.499Z,20.1
2022-09-20T21:13:49.820Z,20.3
2022-09-20T21:16:06.765Z,20
2022-09-20T21:18:23.230Z,19.9
2022-09-20T21:20:40.044Z,20.1
2022-09-20T21:22:56.925Z,20
2022-09-20T21:25:13.492Z,19.9
2022-09-20T21:27:30.474Z,20.2
2022-09-20T21:29:46.892Z,19.9
2022-09-20T21:32:03.796Z,20.1
2022-09-20T21:34:20.453Z,20.2
2022-09-20T21:36:35.679Z,19.9
2022-09-20T21:38:50.869Z,20.2
2022-09-20T21:41:07.482Z,20.1
2022-09-20T21:43:24.402Z,20
2022-09-20T21:45:41.183Z,19.9
2022-09-20T21:47:56.393Z,20
2022-09-20T21:50:13.254Z,20
2022-09-20T21:52:29.950Z,19.8
2022-09-20T21:54:46.817Z,19.8
2022-09-20T21:57:02.084Z,19.8
2022-09-20T21:59:18.727Z,20.1
2022-09-20T22:01:35.698Z,19.6
2022-09-20T22:03:52.438Z,19.8
2022-09-20T22:06:09.234Z,19.9
2022-09-20T22:08:25.993Z,19.9
2022-09-20T22:10:42.739Z,19.9
2022-09-20T22:12:58.856Z,19.9
2022-09-20T22:15:14.640Z,19.8
2022-09-20T22:17:31.376Z,19.9
2022-09-20T22:19:48.079Z,19.6
2022-09-20T22:22:03.359Z,19.9
2022-09-20T22:24:18.601Z,20
2022-09-20T22:26:35.410Z,19.9
2022-09-20T22:28:50.848Z,19.7
2022-09-20T22:31:07.482Z,20
2022-09-20T22:33:24.321Z,19.7
2022-09-20T22:35:39.786Z,19.8
2022-09-20T22:37:56.399Z,20.1
2022-09-20T22:40:13.333Z,19.6
2022-09-20T22:42:30.009Z,19.7
2022-09-20T22:44:46.874Z,19.6
2022-09-20T22:47:03.677Z,19.8
2022-09-20T22:49:20.488Z,19.9
2022-09-20T22:51:37.580Z,19.7
2022-09-20T22:53:54.475Z,19.8
2022-09-20T22:56:11.147Z,19.9
2022-09-20T22:58:28.276Z,19.6
2022-09-20T23:00:44.791Z,19.8
2022-09-20T23:03:01.747Z,19.9
2022-09-20T23:05:18.499Z,19.8
2022-09-20T23:07:33.998Z,19.6
2022-09-20T23:09:50.577Z,19.9
2022-09-20T23:12:07.725Z,19.5
2022-09-20T23:14:24.032Z,19.6
2022-09-20T23:16:41.234Z,19.7
2022-09-20T23:18:58.202Z,19.6
2022-09-20T23:21:15.058Z,19.4
2022-09-20T23:23:30.582Z,19.6
2022-09-20T23:25:47.129Z,20
2022-09-20T23:28:02.933Z,19.4
2022-09-20T23:30:19.626Z,20
2022-09-20T23:32:36.565Z,19.5
2022-09-20T23:34:53.485Z,19.4
2022-09-20T23:37:10.448Z,19.5
2022-09-20T23:39:27.232Z,19.6
2022-09-20T23:41:48.548Z,19.7
2022-09-20T23:44:01.261Z,19.7
2022-09-20T23:46:17.903Z,19.8
2022-09-20T23:48:34.812Z,19.8
2022-09-20T23:50:51.626Z,19.8
2022-09-20T23:53:07.015Z,19.4
2022-09-20T23:55:23.660Z,19.6
2022-09-20T23:57:40.924Z,19.6
2022-09-20T23:59:57.578Z,19.6
